ICE417 EIDW-BIKF
Flight info
| Callsign | ICE417 |
|---|---|
| Flight time | 2h 6m |
| Altitude | 36000 |
| Route | SUROX3J SUROX DCT NIPIT DCT LUTOV DCT AGORI/M081F360 DCT 61N020W DCT BASLU BASLU4N |
| Aircraft | B38M/M-SDE1FGHILORVWXY/HB1 |
Departure
| Time | 2026-05-04 23:59 |
|---|---|
| Airport | Dublin Airport (EIDW) |
Arrival
| Time | 2026-05-05 02:05 |
|---|---|
| Airport | Keflavik International Airport (BIKF) |
| Time | Latitude | Longitude | Altitude | Speed | Heading |
|---|---|---|---|---|---|
| 2026-05-04 23:49 | 53.42440 | -6.24361 | 213 ft | 0 kts | 136° |
| 2026-05-04 23:50 | 53.42451 | -6.24380 | 220 ft | 4 kts | 136° |
| 2026-05-04 23:50 | 53.42470 | -6.24410 | 213 ft | 2 kts | 136° |
| 2026-05-04 23:51 | 53.42488 | -6.24431 | 213 ft | 4 kts | 174° |
| 2026-05-04 23:51 | 53.42511 | -6.24420 | 213 ft | 4 kts | 217° |
| 2026-05-04 23:51 | 53.42516 | -6.24413 | 213 ft | 1 kts | 219° |
| 2026-05-04 23:54 | 53.42512 | -6.24418 | 213 ft | 3 kts | 219° |
| 2026-05-04 23:54 | 53.42475 | -6.24476 | 218 ft | 13 kts | 226° |
| 2026-05-04 23:54 | 53.42416 | -6.24652 | 215 ft | 20 kts | 239° |
| 2026-05-04 23:54 | 53.42377 | -6.24859 | 222 ft | 20 kts | 310° |
| 2026-05-04 23:55 | 53.42507 | -6.24966 | 216 ft | 24 kts | 336° |
| 2026-05-04 23:55 | 53.42686 | -6.25098 | 216 ft | 32 kts | 327° |
| 2026-05-04 23:55 | 53.43115 | -6.25471 | 217 ft | 36 kts | 333° |
| 2026-05-04 23:56 | 53.43332 | -6.25634 | 216 ft | 24 kts | 338° |
| 2026-05-04 23:56 | 53.43421 | -6.25574 | 213 ft | 13 kts | 96° |
| 2026-05-04 23:56 | 53.43400 | -6.25393 | 216 ft | 21 kts | 98° |
| 2026-05-04 23:56 | 53.43383 | -6.25084 | 217 ft | 31 kts | 96° |
| 2026-05-04 23:57 | 53.43362 | -6.24695 | 216 ft | 35 kts | 95° |
| 2026-05-04 23:57 | 53.43341 | -6.24272 | 216 ft | 37 kts | 97° |
| 2026-05-04 23:57 | 53.43327 | -6.23915 | 216 ft | 19 kts | 70° |
| 2026-05-04 23:57 | 53.43446 | -6.23849 | 211 ft | 12 kts | 2° |
| 2026-05-04 23:58 | 53.43489 | -6.23935 | 219 ft | 12 kts | 276° |
| 2026-05-04 23:58 | 53.43505 | -6.24216 | 221 ft | 54 kts | 275° |
| 2026-05-04 23:58 | 53.43564 | -6.25295 | 212 ft | 129 kts | 276° |
| 2026-05-04 23:58 | 53.43665 | -6.27109 | 402 ft | 171 kts | 276° |
| 2026-05-04 23:59 | 53.43764 | -6.29137 | 1308 ft | 174 kts | 275° |
| 2026-05-04 23:59 | 53.44039 | -6.31105 | 2199 ft | 179 kts | 301° |
| 2026-05-04 23:59 | 53.44911 | -6.32725 | 2701 ft | 198 kts | 325° |
| 2026-05-04 23:59 | 53.46122 | -6.34037 | 3240 ft | 217 kts | 334° |
| 2026-05-05 00:00 | 53.47554 | -6.34404 | 4271 ft | 208 kts | 3° |
| 2026-05-05 00:00 | 53.48537 | -6.34270 | 4675 ft | 220 kts | 4° |
| 2026-05-05 00:00 | 53.50567 | -6.33731 | 5730 ft | 222 kts | 3° |
| 2026-05-05 00:00 | 53.52104 | -6.33876 | 6520 ft | 226 kts | 340° |
| 2026-05-05 00:01 | 53.53475 | -6.35286 | 6981 ft | 241 kts | 314° |
| 2026-05-05 00:01 | 53.54667 | -6.37417 | 7480 ft | 259 kts | 314° |
| 2026-05-05 00:01 | 53.56108 | -6.39383 | 8080 ft | 270 kts | 323° |
| 2026-05-05 00:01 | 53.57639 | -6.41254 | 8855 ft | 276 kts | 323° |
| 2026-05-05 00:02 | 53.59190 | -6.43178 | 9007 ft | 277 kts | 322° |
| 2026-05-05 00:02 | 53.60733 | -6.45114 | 8989 ft | 276 kts | 322° |
| 2026-05-05 00:02 | 53.62264 | -6.47051 | 9063 ft | 276 kts | 322° |
| 2026-05-05 00:02 | 53.63803 | -6.49004 | 9123 ft | 278 kts | 322° |
| 2026-05-05 00:03 | 53.65303 | -6.51074 | 9858 ft | 277 kts | 320° |
| 2026-05-05 00:03 | 53.66803 | -6.53171 | 10532 ft | 287 kts | 320° |
| 2026-05-05 00:03 | 53.68400 | -6.55398 | 10865 ft | 307 kts | 320° |
| 2026-05-05 00:03 | 53.70102 | -6.57770 | 11156 ft | 328 kts | 320° |
| 2026-05-05 00:04 | 53.71911 | -6.60292 | 11416 ft | 347 kts | 320° |
| 2026-05-05 00:04 | 53.73803 | -6.62933 | 11602 ft | 367 kts | 320° |
| 2026-05-05 00:04 | 53.75810 | -6.65738 | 11870 ft | 381 kts | 320° |
| 2026-05-05 00:04 | 53.77871 | -6.68621 | 12428 ft | 386 kts | 320° |
| 2026-05-05 00:05 | 53.79944 | -6.71524 | 13051 ft | 389 kts | 320° |
| 2026-05-05 00:05 | 53.82047 | -6.74473 | 13712 ft | 393 kts | 319° |
| 2026-05-05 00:05 | 53.84161 | -6.77442 | 14307 ft | 396 kts | 319° |
| 2026-05-05 00:05 | 53.86296 | -6.80445 | 14863 ft | 400 kts | 319° |
| 2026-05-05 00:06 | 53.88446 | -6.83473 | 15428 ft | 404 kts | 319° |
| 2026-05-05 00:06 | 53.90616 | -6.86533 | 16005 ft | 407 kts | 319° |
| 2026-05-05 00:06 | 53.92804 | -6.89623 | 16561 ft | 411 kts | 319° |
| 2026-05-05 00:06 | 53.94985 | -6.92708 | 17110 ft | 414 kts | 319° |
| 2026-05-05 00:07 | 53.97211 | -6.95859 | 17655 ft | 418 kts | 319° |
| 2026-05-05 00:07 | 53.99323 | -6.99259 | 18163 ft | 420 kts | 307° |
| 2026-05-05 00:07 | 54.00909 | -7.03438 | 18665 ft | 422 kts | 300° |
| 2026-05-05 00:07 | 54.02405 | -7.07757 | 19107 ft | 425 kts | 299° |
| 2026-05-05 00:08 | 54.03887 | -7.12122 | 19605 ft | 427 kts | 299° |
| 2026-05-05 00:08 | 54.05358 | -7.16520 | 20132 ft | 428 kts | 298° |
| 2026-05-05 00:08 | 54.06828 | -7.20953 | 20588 ft | 431 kts | 298° |
| 2026-05-05 00:08 | 54.08300 | -7.25413 | 21033 ft | 434 kts | 298° |
| 2026-05-05 00:09 | 54.09780 | -7.29908 | 21494 ft | 436 kts | 298° |
| 2026-05-05 00:09 | 54.11265 | -7.34427 | 21936 ft | 438 kts | 298° |
| 2026-05-05 00:09 | 54.12758 | -7.38983 | 22363 ft | 441 kts | 298° |
| 2026-05-05 00:09 | 54.14260 | -7.43572 | 22795 ft | 444 kts | 298° |
| 2026-05-05 00:10 | 54.15768 | -7.48188 | 23219 ft | 446 kts | 298° |
| 2026-05-05 00:10 | 54.17281 | -7.52826 | 23636 ft | 449 kts | 298° |
| 2026-05-05 00:10 | 54.18800 | -7.57495 | 23997 ft | 451 kts | 298° |
| 2026-05-05 00:10 | 54.20326 | -7.62192 | 24342 ft | 453 kts | 298° |
| 2026-05-05 00:11 | 54.21858 | -7.66917 | 24696 ft | 455 kts | 298° |
| 2026-05-05 00:11 | 54.23392 | -7.71657 | 25029 ft | 457 kts | 298° |
| 2026-05-05 00:11 | 54.24917 | -7.76380 | 25377 ft | 459 kts | 298° |
| 2026-05-05 00:11 | 54.26457 | -7.81159 | 25784 ft | 459 kts | 297° |
| 2026-05-05 00:12 | 54.28000 | -7.85958 | 26157 ft | 460 kts | 297° |
| 2026-05-05 00:12 | 54.29539 | -7.90751 | 26578 ft | 459 kts | 297° |
| 2026-05-05 00:12 | 54.31076 | -7.95548 | 27030 ft | 458 kts | 297° |
| 2026-05-05 00:12 | 54.32604 | -8.00326 | 27465 ft | 457 kts | 297° |
| 2026-05-05 00:13 | 54.34125 | -8.05093 | 27890 ft | 455 kts | 297° |
| 2026-05-05 00:13 | 54.35639 | -8.09848 | 28330 ft | 454 kts | 297° |
| 2026-05-05 00:13 | 54.37150 | -8.14600 | 28775 ft | 453 kts | 297° |
| 2026-05-05 00:13 | 54.38654 | -8.19340 | 29212 ft | 452 kts | 297° |
| 2026-05-05 00:14 | 54.40152 | -8.24074 | 29648 ft | 451 kts | 297° |
| 2026-05-05 00:14 | 54.41646 | -8.28798 | 30106 ft | 449 kts | 297° |
| 2026-05-05 00:14 | 54.43133 | -8.33509 | 30472 ft | 448 kts | 297° |
| 2026-05-05 00:14 | 54.44617 | -8.38210 | 30815 ft | 447 kts | 298° |
| 2026-05-05 00:15 | 54.46437 | -8.42547 | 31174 ft | 449 kts | 310° |
| 2026-05-05 00:15 | 54.48495 | -8.46562 | 31582 ft | 446 kts | 308° |
| 2026-05-05 00:15 | 54.50517 | -8.50602 | 31906 ft | 445 kts | 309° |
| 2026-05-05 00:15 | 54.52546 | -8.54626 | 32242 ft | 444 kts | 309° |
| 2026-05-05 00:16 | 54.54569 | -8.58635 | 32575 ft | 444 kts | 309° |
| 2026-05-05 00:16 | 54.56566 | -8.62593 | 32902 ft | 443 kts | 309° |
| 2026-05-05 00:16 | 54.58590 | -8.66609 | 33193 ft | 443 kts | 309° |
| 2026-05-05 00:16 | 54.60610 | -8.70626 | 33505 ft | 443 kts | 309° |
| 2026-05-05 00:17 | 54.62624 | -8.74637 | 33823 ft | 442 kts | 309° |
| 2026-05-05 00:17 | 54.64636 | -8.78649 | 34132 ft | 441 kts | 309° |
| 2026-05-05 00:17 | 54.66641 | -8.82654 | 34390 ft | 441 kts | 309° |
| 2026-05-05 00:17 | 54.68644 | -8.86663 | 34644 ft | 440 kts | 309° |
| 2026-05-05 00:18 | 54.70646 | -8.90675 | 34899 ft | 440 kts | 309° |
| 2026-05-05 00:18 | 54.72618 | -8.94634 | 35143 ft | 440 kts | 309° |
| 2026-05-05 00:18 | 54.74615 | -8.98651 | 35375 ft | 440 kts | 309° |
| 2026-05-05 00:18 | 54.76609 | -9.02667 | 35610 ft | 440 kts | 309° |
| 2026-05-05 00:19 | 54.78601 | -9.06687 | 35835 ft | 440 kts | 309° |
| 2026-05-05 00:19 | 54.80597 | -9.10721 | 36042 ft | 440 kts | 309° |
| 2026-05-05 00:19 | 54.82588 | -9.14752 | 36134 ft | 441 kts | 309° |
| 2026-05-05 00:20 | 54.86562 | -9.22818 | 36122 ft | 438 kts | 309° |
| 2026-05-05 00:20 | 54.90528 | -9.30891 | 36114 ft | 439 kts | 309° |
| 2026-05-05 00:21 | 54.94487 | -9.38980 | 36119 ft | 439 kts | 309° |
| 2026-05-05 00:21 | 54.98418 | -9.47037 | 36119 ft | 439 kts | 309° |
| 2026-05-05 00:22 | 55.02370 | -9.55165 | 36126 ft | 439 kts | 309° |
| 2026-05-05 00:22 | 55.06315 | -9.63305 | 36125 ft | 439 kts | 309° |
| 2026-05-05 00:23 | 55.10257 | -9.71468 | 36127 ft | 439 kts | 309° |
| 2026-05-05 00:23 | 55.14187 | -9.79631 | 36139 ft | 439 kts | 309° |
| 2026-05-05 00:24 | 55.18086 | -9.87754 | 36128 ft | 438 kts | 308° |
| 2026-05-05 00:24 | 55.22007 | -9.95946 | 36125 ft | 439 kts | 308° |
| 2026-05-05 00:25 | 55.26247 | -10.03652 | 36143 ft | 440 kts | 316° |
| 2026-05-05 00:25 | 55.30767 | -10.10921 | 36128 ft | 441 kts | 316° |
| 2026-05-05 00:26 | 55.35296 | -10.18198 | 36129 ft | 441 kts | 316° |
| 2026-05-05 00:26 | 55.39816 | -10.25479 | 36132 ft | 440 kts | 316° |
| 2026-05-05 00:27 | 55.44326 | -10.32768 | 36137 ft | 440 kts | 316° |
| 2026-05-05 00:27 | 55.48830 | -10.40072 | 36136 ft | 440 kts | 316° |
| 2026-05-05 00:28 | 55.53335 | -10.47400 | 36136 ft | 440 kts | 316° |
| 2026-05-05 00:28 | 55.57805 | -10.54695 | 36142 ft | 440 kts | 316° |
| 2026-05-05 00:29 | 55.62302 | -10.62058 | 36137 ft | 440 kts | 316° |
| 2026-05-05 00:29 | 55.66797 | -10.69441 | 36132 ft | 440 kts | 316° |
| 2026-05-05 00:30 | 55.71280 | -10.76831 | 36137 ft | 440 kts | 316° |
| 2026-05-05 00:30 | 55.75760 | -10.84237 | 36145 ft | 440 kts | 316° |
| 2026-05-05 00:31 | 55.80237 | -10.91665 | 36146 ft | 440 kts | 316° |
| 2026-05-05 00:31 | 55.84703 | -10.99099 | 36148 ft | 439 kts | 316° |
| 2026-05-05 00:32 | 55.88406 | -11.05281 | 36146 ft | 439 kts | 316° |
| 2026-05-05 00:32 | 55.93579 | -11.13946 | 36148 ft | 439 kts | 316° |
| 2026-05-05 00:33 | 55.98023 | -11.21417 | 36148 ft | 439 kts | 315° |
| 2026-05-05 00:33 | 56.01744 | -11.27692 | 36154 ft | 439 kts | 315° |
| 2026-05-05 00:34 | 56.06160 | -11.35160 | 36168 ft | 439 kts | 315° |
| 2026-05-05 00:34 | 56.10583 | -11.42666 | 36153 ft | 438 kts | 315° |
| 2026-05-05 00:35 | 56.15001 | -11.50187 | 36148 ft | 438 kts | 315° |
| 2026-05-05 00:35 | 56.19411 | -11.57722 | 36159 ft | 438 kts | 315° |
| 2026-05-05 00:36 | 56.23822 | -11.65282 | 36161 ft | 438 kts | 315° |
| 2026-05-05 00:36 | 56.28227 | -11.72857 | 36159 ft | 438 kts | 315° |
| 2026-05-05 00:37 | 56.32625 | -11.80446 | 36160 ft | 437 kts | 315° |
| 2026-05-05 00:37 | 56.37005 | -11.88030 | 36160 ft | 437 kts | 315° |
| 2026-05-05 00:38 | 56.41389 | -11.95644 | 36161 ft | 437 kts | 315° |
| 2026-05-05 00:38 | 56.45738 | -12.03225 | 36162 ft | 437 kts | 315° |
| 2026-05-05 00:39 | 56.50115 | -12.10881 | 36165 ft | 437 kts | 315° |
| 2026-05-05 00:39 | 56.54481 | -12.18541 | 36165 ft | 436 kts | 315° |
| 2026-05-05 00:40 | 56.58828 | -12.26195 | 36170 ft | 436 kts | 315° |
| 2026-05-05 00:40 | 56.63176 | -12.33877 | 36167 ft | 436 kts | 315° |
| 2026-05-05 00:41 | 56.67515 | -12.41569 | 36172 ft | 436 kts | 314° |
| 2026-05-05 00:41 | 56.71852 | -12.49283 | 36172 ft | 435 kts | 314° |
| 2026-05-05 00:42 | 56.76180 | -12.57008 | 36185 ft | 435 kts | 314° |
| 2026-05-05 00:42 | 56.80457 | -12.64667 | 36171 ft | 433 kts | 314° |
| 2026-05-05 00:43 | 56.84762 | -12.72401 | 36170 ft | 434 kts | 314° |
| 2026-05-05 00:43 | 56.89063 | -12.80150 | 36179 ft | 434 kts | 314° |
| 2026-05-05 00:44 | 56.93358 | -12.87913 | 36179 ft | 434 kts | 314° |
| 2026-05-05 00:44 | 56.97651 | -12.95696 | 36176 ft | 434 kts | 314° |
| 2026-05-05 00:45 | 57.02178 | -13.03003 | 36198 ft | 434 kts | 320° |
| 2026-05-05 00:45 | 57.06894 | -13.09947 | 36161 ft | 434 kts | 320° |
| 2026-05-05 00:46 | 57.11588 | -13.16979 | 36182 ft | 435 kts | 319° |
| 2026-05-05 00:46 | 57.16243 | -13.23989 | 36181 ft | 435 kts | 319° |
| 2026-05-05 00:47 | 57.20918 | -13.31054 | 36181 ft | 435 kts | 319° |
| 2026-05-05 00:47 | 57.25598 | -13.38150 | 36184 ft | 435 kts | 319° |
| 2026-05-05 00:48 | 57.30272 | -13.45262 | 36182 ft | 435 kts | 319° |
| 2026-05-05 00:48 | 57.34943 | -13.52393 | 36182 ft | 435 kts | 319° |
| 2026-05-05 00:49 | 57.39608 | -13.59539 | 36180 ft | 435 kts | 319° |
| 2026-05-05 00:49 | 57.44267 | -13.66700 | 36181 ft | 435 kts | 319° |
| 2026-05-05 00:50 | 57.48894 | -13.73835 | 36177 ft | 434 kts | 319° |
| 2026-05-05 00:50 | 57.53541 | -13.81028 | 36187 ft | 434 kts | 319° |
| 2026-05-05 00:51 | 57.58182 | -13.88236 | 36184 ft | 434 kts | 319° |
| 2026-05-05 00:51 | 57.62818 | -13.95460 | 36189 ft | 434 kts | 319° |
| 2026-05-05 00:52 | 57.67456 | -14.02712 | 36176 ft | 434 kts | 319° |
| 2026-05-05 00:52 | 57.72092 | -14.09986 | 36193 ft | 435 kts | 318° |
| 2026-05-05 00:53 | 57.76711 | -14.17258 | 36189 ft | 434 kts | 318° |
| 2026-05-05 00:53 | 57.81333 | -14.24562 | 36202 ft | 434 kts | 318° |
| 2026-05-05 00:54 | 57.85914 | -14.31825 | 36196 ft | 434 kts | 318° |
| 2026-05-05 00:54 | 57.90524 | -14.39158 | 36196 ft | 434 kts | 318° |
| 2026-05-05 00:55 | 57.95129 | -14.46511 | 36200 ft | 434 kts | 318° |
| 2026-05-05 00:55 | 57.99729 | -14.53880 | 36202 ft | 434 kts | 318° |
| 2026-05-05 00:56 | 58.04328 | -14.61273 | 36206 ft | 434 kts | 318° |
| 2026-05-05 00:56 | 58.08918 | -14.68678 | 36204 ft | 434 kts | 318° |
| 2026-05-05 00:57 | 58.13509 | -14.76112 | 36204 ft | 434 kts | 318° |
| 2026-05-05 00:57 | 58.18095 | -14.83564 | 36228 ft | 434 kts | 317° |
| 2026-05-05 00:58 | 58.22662 | -14.91010 | 36205 ft | 432 kts | 317° |
| 2026-05-05 00:58 | 58.27218 | -14.98463 | 36199 ft | 432 kts | 317° |
| 2026-05-05 00:59 | 58.31745 | -15.05897 | 36200 ft | 434 kts | 317° |
| 2026-05-05 00:59 | 58.36311 | -15.13420 | 36206 ft | 434 kts | 317° |
| 2026-05-05 01:00 | 58.40868 | -15.20957 | 36209 ft | 434 kts | 317° |
| 2026-05-05 01:00 | 58.45414 | -15.28501 | 36210 ft | 432 kts | 317° |
| 2026-05-05 01:01 | 58.49946 | -15.36049 | 36207 ft | 432 kts | 317° |
| 2026-05-05 01:01 | 58.54450 | -15.43576 | 36209 ft | 432 kts | 317° |
| 2026-05-05 01:02 | 58.58971 | -15.51161 | 36208 ft | 432 kts | 317° |
| 2026-05-05 01:02 | 58.63495 | -15.58775 | 36206 ft | 432 kts | 317° |
| 2026-05-05 01:03 | 58.68003 | -15.66391 | 36213 ft | 430 kts | 316° |
| 2026-05-05 01:03 | 58.72484 | -15.73988 | 36207 ft | 429 kts | 316° |
| 2026-05-05 01:04 | 58.76960 | -15.81604 | 36204 ft | 429 kts | 316° |
| 2026-05-05 01:04 | 58.83665 | -15.93063 | 36208 ft | 429 kts | 316° |
| 2026-05-05 01:05 | 58.88131 | -16.00730 | 36208 ft | 429 kts | 316° |
| 2026-05-05 01:05 | 58.92582 | -16.08401 | 36205 ft | 429 kts | 316° |
| 2026-05-05 01:06 | 58.97032 | -16.16096 | 36208 ft | 429 kts | 316° |
| 2026-05-05 01:06 | 59.01455 | -16.23771 | 36207 ft | 429 kts | 316° |
| 2026-05-05 01:07 | 59.05899 | -16.31512 | 36210 ft | 429 kts | 316° |
| 2026-05-05 01:07 | 59.10339 | -16.39273 | 36209 ft | 429 kts | 316° |
| 2026-05-05 01:08 | 59.14766 | -16.47041 | 36238 ft | 428 kts | 316° |
| 2026-05-05 01:08 | 59.19172 | -16.54799 | 36218 ft | 426 kts | 316° |
| 2026-05-05 01:09 | 59.23547 | -16.62530 | 36228 ft | 426 kts | 315° |
| 2026-05-05 01:09 | 59.27938 | -16.70318 | 36219 ft | 426 kts | 315° |
| 2026-05-05 01:10 | 59.32325 | -16.78128 | 36224 ft | 426 kts | 315° |
| 2026-05-05 01:10 | 59.36712 | -16.85966 | 36222 ft | 426 kts | 315° |
| 2026-05-05 01:11 | 59.41086 | -16.93808 | 36225 ft | 425 kts | 315° |
| 2026-05-05 01:11 | 59.45445 | -17.01653 | 36234 ft | 425 kts | 315° |
| 2026-05-05 01:12 | 59.49800 | -17.09520 | 36232 ft | 425 kts | 315° |
| 2026-05-05 01:12 | 59.54155 | -17.17414 | 36240 ft | 426 kts | 315° |
| 2026-05-05 01:13 | 59.58495 | -17.25312 | 36243 ft | 427 kts | 315° |
| 2026-05-05 01:13 | 59.62847 | -17.33261 | 36254 ft | 426 kts | 315° |
| 2026-05-05 01:14 | 59.67189 | -17.41220 | 36252 ft | 425 kts | 315° |
| 2026-05-05 01:14 | 59.71529 | -17.49205 | 36254 ft | 426 kts | 315° |
| 2026-05-05 01:15 | 59.75860 | -17.57203 | 36263 ft | 425 kts | 315° |
| 2026-05-05 01:15 | 59.80189 | -17.65228 | 36266 ft | 425 kts | 315° |
| 2026-05-05 01:16 | 59.84507 | -17.73261 | 36268 ft | 426 kts | 315° |
| 2026-05-05 01:16 | 59.88816 | -17.81309 | 36272 ft | 424 kts | 315° |
| 2026-05-05 01:17 | 59.93116 | -17.89369 | 36273 ft | 424 kts | 315° |
| 2026-05-05 01:17 | 59.97415 | -17.97456 | 36269 ft | 424 kts | 314° |
| 2026-05-05 01:18 | 60.01706 | -18.05562 | 36279 ft | 424 kts | 314° |
| 2026-05-05 01:18 | 60.05962 | -18.13630 | 36276 ft | 424 kts | 314° |
| 2026-05-05 01:19 | 60.10242 | -18.21772 | 36301 ft | 423 kts | 314° |
| 2026-05-05 01:19 | 60.14494 | -18.29894 | 36263 ft | 423 kts | 314° |
| 2026-05-05 01:20 | 60.18772 | -18.38095 | 36278 ft | 425 kts | 314° |
| 2026-05-05 01:20 | 60.23038 | -18.46305 | 36281 ft | 424 kts | 314° |
| 2026-05-05 01:21 | 60.27301 | -18.54540 | 36289 ft | 425 kts | 314° |
| 2026-05-05 01:21 | 60.31531 | -18.62743 | 36289 ft | 424 kts | 314° |
| 2026-05-05 01:22 | 60.35785 | -18.71023 | 36291 ft | 424 kts | 314° |
| 2026-05-05 01:22 | 60.40030 | -18.79317 | 36290 ft | 424 kts | 314° |
| 2026-05-05 01:23 | 60.43565 | -18.86248 | 36289 ft | 424 kts | 314° |
| 2026-05-05 01:23 | 60.47799 | -18.94578 | 36289 ft | 424 kts | 314° |
| 2026-05-05 01:24 | 60.52035 | -19.02946 | 36294 ft | 425 kts | 314° |
| 2026-05-05 01:24 | 60.56264 | -19.11331 | 36318 ft | 424 kts | 314° |
| 2026-05-05 01:25 | 60.60477 | -19.19716 | 36292 ft | 423 kts | 314° |
| 2026-05-05 01:25 | 60.64684 | -19.28116 | 36293 ft | 423 kts | 314° |
| 2026-05-05 01:26 | 60.68855 | -19.36475 | 36298 ft | 423 kts | 313° |
| 2026-05-05 01:26 | 60.73050 | -19.44911 | 36298 ft | 423 kts | 313° |
| 2026-05-05 01:27 | 60.77247 | -19.53382 | 36302 ft | 425 kts | 313° |
| 2026-05-05 01:27 | 60.81446 | -19.61892 | 36311 ft | 424 kts | 313° |
| 2026-05-05 01:28 | 60.85635 | -19.70412 | 36302 ft | 424 kts | 313° |
| 2026-05-05 01:28 | 60.89818 | -19.78951 | 36301 ft | 424 kts | 313° |
| 2026-05-05 01:29 | 60.93999 | -19.87521 | 36303 ft | 424 kts | 313° |
| 2026-05-05 01:29 | 60.98185 | -19.96081 | 36303 ft | 424 kts | 316° |
| 2026-05-05 01:30 | 61.00619 | -19.99551 | 36291 ft | 428 kts | 331° |
| 2026-05-05 01:30 | 61.03412 | -20.01753 | 36318 ft | 433 kts | 340° |
| 2026-05-05 01:30 | 61.09196 | -20.05154 | 36305 ft | 435 kts | 341° |
| 2026-05-05 01:31 | 61.15045 | -20.08398 | 36302 ft | 435 kts | 341° |
| 2026-05-05 01:31 | 61.20909 | -20.11600 | 36300 ft | 435 kts | 341° |
| 2026-05-05 01:32 | 61.26770 | -20.14806 | 36303 ft | 435 kts | 341° |
| 2026-05-05 01:32 | 61.32629 | -20.18021 | 36326 ft | 435 kts | 341° |
| 2026-05-05 01:33 | 61.38491 | -20.21252 | 36305 ft | 435 kts | 341° |
| 2026-05-05 01:33 | 61.44348 | -20.24491 | 36305 ft | 435 kts | 341° |
| 2026-05-05 01:34 | 61.50158 | -20.27718 | 36306 ft | 435 kts | 341° |
| 2026-05-05 01:34 | 61.56010 | -20.30981 | 36306 ft | 435 kts | 341° |
| 2026-05-05 01:35 | 61.61863 | -20.34256 | 36328 ft | 435 kts | 341° |
| 2026-05-05 01:35 | 61.67705 | -20.37539 | 36300 ft | 434 kts | 341° |
| 2026-05-05 01:36 | 61.73552 | -20.40836 | 36303 ft | 434 kts | 341° |
| 2026-05-05 01:36 | 61.79390 | -20.44143 | 36303 ft | 434 kts | 340° |
| 2026-05-05 01:37 | 61.85202 | -20.47446 | 36301 ft | 434 kts | 340° |
| 2026-05-05 01:37 | 61.91042 | -20.50779 | 36324 ft | 434 kts | 340° |
| 2026-05-05 01:38 | 61.96872 | -20.54120 | 36304 ft | 433 kts | 340° |
| 2026-05-05 01:38 | 62.02696 | -20.57471 | 36324 ft | 433 kts | 340° |
| 2026-05-05 01:39 | 62.08498 | -20.60822 | 36300 ft | 430 kts | 340° |
| 2026-05-05 01:39 | 62.14283 | -20.64176 | 36299 ft | 431 kts | 340° |
| 2026-05-05 01:40 | 62.20065 | -20.67542 | 36330 ft | 431 kts | 340° |
| 2026-05-05 01:40 | 62.25838 | -20.70917 | 36301 ft | 429 kts | 340° |
| 2026-05-05 01:41 | 62.31606 | -20.74301 | 36299 ft | 430 kts | 340° |
| 2026-05-05 01:41 | 62.37014 | -20.77487 | 36298 ft | 430 kts | 340° |
| 2026-05-05 01:42 | 62.42436 | -20.80692 | 36300 ft | 430 kts | 340° |
| 2026-05-05 01:42 | 62.48202 | -20.84115 | 36301 ft | 430 kts | 340° |
| 2026-05-05 01:43 | 62.53922 | -20.87524 | 36275 ft | 426 kts | 340° |
| 2026-05-05 01:43 | 62.56796 | -20.89242 | 35715 ft | 422 kts | 340° |
| 2026-05-05 01:43 | 62.59636 | -20.90946 | 34885 ft | 425 kts | 339° |
| 2026-05-05 01:44 | 62.62453 | -20.92640 | 34259 ft | 424 kts | 339° |
| 2026-05-05 01:44 | 62.65281 | -20.94339 | 33490 ft | 422 kts | 339° |
| 2026-05-05 01:44 | 62.68128 | -20.96057 | 32470 ft | 427 kts | 339° |
| 2026-05-05 01:44 | 62.70988 | -20.97784 | 31760 ft | 424 kts | 339° |
| 2026-05-05 01:45 | 62.73822 | -20.99499 | 30981 ft | 424 kts | 339° |
| 2026-05-05 01:45 | 62.76675 | -21.01229 | 30017 ft | 427 kts | 339° |
| 2026-05-05 01:45 | 62.79539 | -21.02969 | 29136 ft | 426 kts | 339° |
| 2026-05-05 01:45 | 62.82388 | -21.04703 | 28239 ft | 425 kts | 339° |
| 2026-05-05 01:46 | 62.85237 | -21.06441 | 27335 ft | 425 kts | 339° |
| 2026-05-05 01:46 | 62.88067 | -21.08169 | 26703 ft | 419 kts | 339° |
| 2026-05-05 01:46 | 62.90859 | -21.09877 | 26048 ft | 413 kts | 339° |
| 2026-05-05 01:46 | 62.93630 | -21.11577 | 25404 ft | 416 kts | 339° |
| 2026-05-05 01:47 | 62.96427 | -21.13296 | 24756 ft | 418 kts | 339° |
| 2026-05-05 01:47 | 62.99227 | -21.15018 | 24123 ft | 417 kts | 339° |
| 2026-05-05 01:47 | 63.02008 | -21.16731 | 23415 ft | 412 kts | 339° |
| 2026-05-05 01:47 | 63.04750 | -21.18424 | 22756 ft | 406 kts | 339° |
| 2026-05-05 01:48 | 63.07446 | -21.20092 | 22130 ft | 400 kts | 339° |
| 2026-05-05 01:48 | 63.10069 | -21.21717 | 21532 ft | 394 kts | 339° |
| 2026-05-05 01:48 | 63.12695 | -21.23347 | 20932 ft | 389 kts | 339° |
| 2026-05-05 01:48 | 63.15293 | -21.24963 | 20341 ft | 385 kts | 339° |
| 2026-05-05 01:49 | 63.17829 | -21.26709 | 19666 ft | 378 kts | 332° |
| 2026-05-05 01:49 | 63.20006 | -21.29804 | 19074 ft | 368 kts | 319° |
| 2026-05-05 01:49 | 63.22000 | -21.33304 | 18532 ft | 363 kts | 319° |
| 2026-05-05 01:49 | 63.23952 | -21.36827 | 17918 ft | 359 kts | 318° |
| 2026-05-05 01:50 | 63.25866 | -21.40339 | 17362 ft | 354 kts | 318° |
| 2026-05-05 01:50 | 63.27746 | -21.43829 | 16822 ft | 350 kts | 317° |
| 2026-05-05 01:50 | 63.29598 | -21.47295 | 16295 ft | 346 kts | 317° |
| 2026-05-05 01:50 | 63.31426 | -21.50729 | 15781 ft | 342 kts | 317° |
| 2026-05-05 01:51 | 63.33249 | -21.54168 | 15259 ft | 346 kts | 317° |
| 2026-05-05 01:51 | 63.35097 | -21.57657 | 14677 ft | 349 kts | 317° |
| 2026-05-05 01:51 | 63.36944 | -21.61154 | 14236 ft | 348 kts | 317° |
| 2026-05-05 01:51 | 63.38768 | -21.64612 | 13871 ft | 339 kts | 317° |
| 2026-05-05 01:52 | 63.40511 | -21.67923 | 13672 ft | 327 kts | 317° |
| 2026-05-05 01:52 | 63.42231 | -21.71196 | 13496 ft | 315 kts | 317° |
| 2026-05-05 01:52 | 63.43848 | -21.74278 | 13338 ft | 304 kts | 317° |
| 2026-05-05 01:52 | 63.45428 | -21.77292 | 13185 ft | 293 kts | 317° |
| 2026-05-05 01:53 | 63.46951 | -21.80204 | 13038 ft | 282 kts | 317° |
| 2026-05-05 01:53 | 63.48404 | -21.82984 | 12904 ft | 265 kts | 317° |
| 2026-05-05 01:53 | 63.49753 | -21.85570 | 12775 ft | 246 kts | 317° |
| 2026-05-05 01:53 | 63.51004 | -21.87970 | 12659 ft | 228 kts | 317° |
| 2026-05-05 01:54 | 63.52171 | -21.90214 | 12549 ft | 217 kts | 317° |
| 2026-05-05 01:54 | 63.53349 | -21.92479 | 12469 ft | 231 kts | 317° |
| 2026-05-05 01:54 | 63.54592 | -21.94872 | 12268 ft | 238 kts | 317° |
| 2026-05-05 01:54 | 63.55858 | -21.97312 | 11803 ft | 241 kts | 317° |
| 2026-05-05 01:55 | 63.57128 | -21.99765 | 11364 ft | 240 kts | 317° |
| 2026-05-05 01:55 | 63.58396 | -22.02214 | 10972 ft | 241 kts | 317° |
| 2026-05-05 01:55 | 63.59663 | -22.04667 | 10564 ft | 241 kts | 317° |
| 2026-05-05 01:55 | 63.60947 | -22.07155 | 10145 ft | 246 kts | 318° |
| 2026-05-05 01:56 | 63.62253 | -22.09688 | 9642 ft | 250 kts | 318° |
| 2026-05-05 01:56 | 63.63566 | -22.12238 | 9160 ft | 253 kts | 318° |
| 2026-05-05 01:56 | 63.64902 | -22.14836 | 8690 ft | 253 kts | 318° |
| 2026-05-05 01:56 | 63.66217 | -22.17397 | 8255 ft | 246 kts | 318° |
| 2026-05-05 01:57 | 63.67494 | -22.19888 | 7843 ft | 240 kts | 318° |
| 2026-05-05 01:57 | 63.68738 | -22.22317 | 7435 ft | 234 kts | 318° |
| 2026-05-05 01:57 | 63.69950 | -22.24687 | 7080 ft | 227 kts | 318° |
| 2026-05-05 01:57 | 63.71124 | -22.26984 | 6776 ft | 219 kts | 318° |
| 2026-05-05 01:58 | 63.72251 | -22.29194 | 6496 ft | 210 kts | 318° |
| 2026-05-05 01:58 | 63.73330 | -22.31310 | 6238 ft | 201 kts | 318° |
| 2026-05-05 01:58 | 63.74361 | -22.33335 | 5976 ft | 192 kts | 318° |
| 2026-05-05 01:58 | 63.75346 | -22.35271 | 5733 ft | 184 kts | 318° |
| 2026-05-05 01:59 | 63.76297 | -22.37183 | 5550 ft | 178 kts | 313° |
| 2026-05-05 01:59 | 63.76870 | -22.39486 | 5344 ft | 168 kts | 294° |
| 2026-05-05 01:59 | 63.77302 | -22.41920 | 5053 ft | 166 kts | 293° |
| 2026-05-05 01:59 | 63.77722 | -22.44348 | 4763 ft | 165 kts | 293° |
| 2026-05-05 02:00 | 63.78132 | -22.46768 | 4475 ft | 164 kts | 292° |
| 2026-05-05 02:00 | 63.78539 | -22.49189 | 4193 ft | 164 kts | 292° |
| 2026-05-05 02:00 | 63.78941 | -22.51615 | 3926 ft | 164 kts | 292° |
| 2026-05-05 02:00 | 63.79338 | -22.54032 | 3701 ft | 163 kts | 293° |
| 2026-05-05 02:01 | 63.79731 | -22.56439 | 3500 ft | 164 kts | 292° |
| 2026-05-05 02:01 | 63.80255 | -22.58700 | 3305 ft | 162 kts | 317° |
| 2026-05-05 02:01 | 63.81243 | -22.59796 | 3169 ft | 160 kts | 347° |
| 2026-05-05 02:01 | 63.82345 | -22.60177 | 2995 ft | 160 kts | 353° |
| 2026-05-05 02:02 | 63.83448 | -22.60380 | 2813 ft | 161 kts | 356° |
| 2026-05-05 02:02 | 63.84572 | -22.60478 | 2607 ft | 161 kts | 359° |
| 2026-05-05 02:02 | 63.85684 | -22.60518 | 2448 ft | 160 kts | 0° |
| 2026-05-05 02:02 | 63.86769 | -22.60531 | 2213 ft | 147 kts | 1° |
| 2026-05-05 02:03 | 63.87763 | -22.60534 | 2001 ft | 141 kts | 1° |
| 2026-05-05 02:03 | 63.88741 | -22.60536 | 1798 ft | 141 kts | 1° |
| 2026-05-05 02:03 | 63.89721 | -22.60537 | 1589 ft | 140 kts | 2° |
| 2026-05-05 02:03 | 63.90691 | -22.60538 | 1393 ft | 139 kts | 2° |
| 2026-05-05 02:04 | 63.91658 | -22.60539 | 1178 ft | 138 kts | 1° |
| 2026-05-05 02:04 | 63.92622 | -22.60538 | 978 ft | 139 kts | 2° |
| 2026-05-05 02:04 | 63.93585 | -22.60539 | 770 ft | 141 kts | 1° |
| 2026-05-05 02:04 | 63.94561 | -22.60541 | 578 ft | 140 kts | 2° |
| 2026-05-05 02:05 | 63.95536 | -22.60539 | 393 ft | 140 kts | 2° |
| 2026-05-05 02:05 | 63.96511 | -22.60544 | 185 ft | 140 kts | 2° |
| 2026-05-05 02:05 | 63.97347 | -22.60552 | 173 ft | 93 kts | 0° |
| 2026-05-05 02:05 | 63.97795 | -22.60540 | 175 ft | 40 kts | 359° |
| 2026-05-05 02:06 | 63.98081 | -22.60546 | 174 ft | 41 kts | 0° |
| 2026-05-05 02:06 | 63.98361 | -22.60541 | 175 ft | 40 kts | 359° |
| 2026-05-05 02:06 | 63.98633 | -22.60548 | 179 ft | 39 kts | 0° |
| 2026-05-05 02:06 | 63.98855 | -22.60724 | 177 ft | 33 kts | 317° |
| 2026-05-05 02:07 | 63.99016 | -22.60948 | 173 ft | 20 kts | 3° |
| 2026-05-05 02:07 | 63.99157 | -22.60962 | 167 ft | 21 kts | 326° |
| 2026-05-05 02:07 | 63.99179 | -22.61229 | 160 ft | 20 kts | 267° |
| 2026-05-05 02:07 | 63.99174 | -22.61582 | 153 ft | 25 kts | 269° |
| 2026-05-05 02:08 | 63.99171 | -22.62023 | 145 ft | 30 kts | 269° |
| 2026-05-05 02:08 | 63.99194 | -22.62314 | 145 ft | 10 kts | 338° |
| 2026-05-05 02:08 | 63.99265 | -22.62304 | 145 ft | 11 kts | 360° |
| 2026-05-05 02:08 | 63.99277 | -22.62304 | 145 ft | 0 kts | 360° |